createdAt,value
2022-08-19T00:00:11.475Z,97281.98
2022-08-19T00:02:59.522Z,97283.80
2022-08-19T00:05:27.691Z,97286.29
2022-08-19T00:07:55.621Z,97285.39
2022-08-19T00:10:25.096Z,97286.48
2022-08-19T00:12:53.461Z,97282.77
2022-08-19T00:15:23.733Z,97281.52
2022-08-19T00:17:51.970Z,97283.41
2022-08-19T00:20:22.944Z,97287.59
2022-08-19T00:22:50.948Z,97293.70
2022-08-19T00:25:19.492Z,97297.14
2022-08-19T00:28:00.504Z,97301.30
2022-08-19T00:30:29.651Z,97309.08
2022-08-19T00:32:58.820Z,97303.71
2022-08-19T00:35:28.466Z,97295.45
2022-08-19T00:37:57.346Z,97290.34
2022-08-19T00:40:26.112Z,97295.63
2022-08-19T00:42:54.971Z,97303.04
2022-08-19T00:45:26.980Z,97311.33
2022-08-19T00:47:54.961Z,97311.10
2022-08-19T00:50:23.663Z,97307.79
2022-08-19T00:52:52.680Z,97303.09
2022-08-19T00:55:25.170Z,97304.43
2022-08-19T00:58:02.524Z,97305.05
2022-08-19T01:00:31.994Z,97297.58
2022-08-19T01:03:00.381Z,97300.54
2022-08-19T01:05:30.329Z,97308.21
2022-08-19T01:08:01.543Z,97317.72
2022-08-19T01:10:36.823Z,97317.64
2022-08-19T01:13:05.844Z,97316.70
2022-08-19T01:15:39.652Z,97317.31
2022-08-19T01:18:11.900Z,97317.19
2022-08-19T01:20:42.407Z,97314.41
2022-08-19T01:23:10.870Z,97316.69
2022-08-19T01:25:53.095Z,97317.61
2022-08-19T01:28:34.009Z,97319.17
2022-08-19T01:31:12.560Z,97320.70
2022-08-19T01:33:57.616Z,97323.21
2022-08-19T01:36:28.175Z,97319.33
2022-08-19T01:38:57.150Z,97319.05
2022-08-19T01:41:25.457Z,97318.52
2022-08-19T01:44:09.825Z,97321.67
2022-08-19T01:46:43.819Z,97317.50
2022-08-19T01:49:11.971Z,97306.92
2022-08-19T01:51:40.581Z,97309.28
2022-08-19T01:54:10.813Z,97315.09
2022-08-19T01:56:39.714Z,97315.33
2022-08-19T01:59:15.881Z,97317.30
2022-08-19T02:01:44.435Z,97320.81
2022-08-19T02:04:12.599Z,97327.27
2022-08-19T02:06:41.296Z,97327.11
2022-08-19T02:09:09.907Z,97324.60
2022-08-19T02:11:40.194Z,97329.94
2022-08-19T02:14:09.245Z,97337.58
2022-08-19T02:16:38.323Z,97343.90
2022-08-19T02:19:06.649Z,97342.89
2022-08-19T02:21:35.011Z,97333.28
2022-08-19T02:24:03.960Z,97331.36
2022-08-19T02:26:34.142Z,97338.59
2022-08-19T02:29:02.292Z,97333.95
2022-08-19T02:31:30.449Z,97328.25
2022-08-19T02:33:59.620Z,97334.19
2022-08-19T02:36:28.845Z,97335.59
2022-08-19T02:38:58.523Z,97333.84
2022-08-19T02:41:29.424Z,97330.08
2022-08-19T02:44:30.246Z,97331.59
2022-08-19T02:46:48.970Z,97337.10
2022-08-19T02:49:20.706Z,97338.42
2022-08-19T02:51:48.978Z,97338.86
2022-08-19T02:54:17.060Z,97340.45
2022-08-19T02:56:45.327Z,97340.88
2022-08-19T02:59:13.427Z,97345.58
2022-08-19T03:01:43.113Z,97346.38
2022-08-19T03:04:14.307Z,97346.66
2022-08-19T03:06:47.854Z,97347.30
2022-08-19T03:09:17.247Z,97347.33
2022-08-19T03:11:45.245Z,97348.45
2022-08-19T03:14:14.174Z,97346.25
2022-08-19T03:16:46.737Z,97346.77
2022-08-19T03:19:17.169Z,97351.77
2022-08-19T03:21:46.777Z,97357.95
2022-08-19T03:24:16.886Z,97360.27
2022-08-19T03:26:48.178Z,97354.02
2022-08-19T03:29:30.901Z,97355.61
2022-08-19T03:32:05.904Z,97354.27
2022-08-19T03:34:37.363Z,97350.14
2022-08-19T03:37:09.347Z,97355.89
2022-08-19T03:39:39.267Z,97359.53
2022-08-19T03:42:38.288Z,97359.19
2022-08-19T03:44:55.350Z,97355.01
2022-08-19T03:47:23.305Z,97349.43
2022-08-19T03:49:51.659Z,97350.92
2022-08-19T03:52:19.679Z,97362.66
2022-08-19T03:54:47.721Z,97366.34
2022-08-19T03:57:15.764Z,97363.05
2022-08-19T03:59:44.641Z,97361.36
2022-08-19T04:02:14.292Z,97368.96
2022-08-19T04:04:44.381Z,97373.67
2022-08-19T04:07:17.291Z,97373.66
2022-08-19T04:09:45.331Z,97375.63
2022-08-19T04:12:13.294Z,97378.36
2022-08-19T04:14:41.426Z,97386.41
2022-08-19T04:17:09.533Z,97385.31
2022-08-19T04:19:38.122Z,97383.16
2022-08-19T04:22:06.350Z,97388.83
2022-08-19T04:24:36.553Z,97395.29
2022-08-19T04:27:06.542Z,97396.40
2022-08-19T04:29:35.285Z,97392.57
2022-08-19T04:32:09.093Z,97393.70
2022-08-19T04:35:02.298Z,97392.90
2022-08-19T04:37:35.593Z,97395.97
2022-08-19T04:40:24.909Z,97394.54
2022-08-19T04:42:53.249Z,97395.33
2022-08-19T04:45:22.868Z,97394.55
2022-08-19T04:47:58.865Z,97389.39
2022-08-19T04:50:45.234Z,97387.58
2022-08-19T04:53:13.414Z,97387.48
2022-08-19T04:55:43.076Z,97383.38
2022-08-19T04:58:11.118Z,97381.30
2022-08-19T05:00:41.102Z,97373.75
2022-08-19T05:03:09.574Z,97368.77
2022-08-19T05:05:45.702Z,97368.61
2022-08-19T05:08:15.307Z,97365.65
2022-08-19T05:10:43.771Z,97361.06
2022-08-19T05:13:12.099Z,97360.13
2022-08-19T05:15:40.269Z,97359.93
2022-08-19T05:18:26.629Z,97359.62
2022-08-19T05:21:13.697Z,97357.42
2022-08-19T05:23:42.290Z,97353.77
2022-08-19T05:26:12.183Z,97355.65
2022-08-19T05:28:40.157Z,97362.18
2022-08-19T05:31:08.125Z,97360.82
2022-08-19T05:33:36.468Z,97363.33
2022-08-19T05:36:05.644Z,97366.90
2022-08-19T05:38:34.145Z,97364.23
2022-08-19T05:41:11.745Z,97361.74
2022-08-19T05:43:40.212Z,97357.35
2022-08-19T05:46:09.777Z,97347.11
2022-08-19T05:48:37.845Z,97343.96
2022-08-19T05:51:07.571Z,97335.31
2022-08-19T05:53:36.344Z,97334.17
2022-08-19T05:56:13.681Z,97335.41
2022-08-19T05:58:42.822Z,97334.27
2022-08-19T06:01:16.310Z,97336.12
2022-08-19T06:03:45.172Z,97340.14
2022-08-19T06:06:16.770Z,97340.83
2022-08-19T06:08:51.789Z,97340.66
2022-08-19T06:11:38.439Z,97339.27
2022-08-19T06:14:15.074Z,97336.58
2022-08-19T06:16:46.407Z,97331.31
2022-08-19T06:19:17.843Z,97327.81
2022-08-19T06:21:49.355Z,97321.77
2022-08-19T06:24:21.435Z,97319.40
2022-08-19T06:26:52.289Z,97319.27
2022-08-19T06:29:24.875Z,97319.31
2022-08-19T06:31:59.073Z,97319.72
2022-08-19T06:34:30.888Z,97320.99
2022-08-19T06:37:04.340Z,97321.29
2022-08-19T06:39:39.604Z,97318.15
2022-08-19T06:42:11.116Z,97318.73
2022-08-19T06:44:43.029Z,97325.75
2022-08-19T06:47:23.511Z,97327.19
2022-08-19T06:50:03.666Z,97329.44
2022-08-19T06:52:36.747Z,97329.84
2022-08-19T06:55:07.705Z,97329.97
2022-08-19T06:57:36.565Z,97329.31
2022-08-19T07:00:12.924Z,97332.73
2022-08-19T07:02:49.801Z,97331.12
2022-08-19T07:05:26.329Z,97328.69
2022-08-19T07:07:58.239Z,97324.02
2022-08-19T07:10:32.771Z,97323.39
2022-08-19T07:13:01.388Z,97325.42
2022-08-19T07:15:29.773Z,97328.55
2022-08-19T07:17:58.080Z,97323.34
2022-08-19T07:20:28.527Z,97331.94
2022-08-19T07:22:57.063Z,97332.05
2022-08-19T07:25:32.543Z,97328.58
2022-08-19T07:28:01.825Z,97332.15
2022-08-19T07:30:30.608Z,97331.27
2022-08-19T07:32:59.867Z,97332.48
2022-08-19T07:35:33.264Z,97336.39
2022-08-19T07:38:03.759Z,97334.42
2022-08-19T07:40:32.276Z,97333.82
2022-08-19T07:43:00.456Z,97336.63
2022-08-19T07:45:29.609Z,97342.50
2022-08-19T07:47:57.827Z,97343.99
2022-08-19T07:50:25.871Z,97341.27
2022-08-19T07:52:53.941Z,97338.41
2022-08-19T07:55:42.056Z,97331.68
2022-08-19T07:58:15.369Z,97330.33
2022-08-19T08:00:46.669Z,97322.05
2022-08-19T08:03:16.499Z,97318.36
2022-08-19T08:06:03.649Z,97319.77
2022-08-19T08:08:50.212Z,97316.05
2022-08-19T08:11:23.967Z,97313.80
2022-08-19T08:14:01.168Z,97314.31
2022-08-19T08:16:47.382Z,97309.66
2022-08-19T08:19:25.336Z,97304.33
2022-08-19T08:21:57.163Z,97299.17
2022-08-19T08:24:29.028Z,97300.35
2022-08-19T08:27:00.158Z,97297.84
2022-08-19T08:29:34.786Z,97296.95
2022-08-19T08:32:14.275Z,97295.13
2022-08-19T08:34:44.371Z,97292.94
2022-08-19T08:37:16.193Z,97287.95
2022-08-19T08:39:44.901Z,97295.05
2022-08-19T08:42:37.553Z,97299.89
2022-08-19T08:45:16.813Z,97299.52
2022-08-19T08:47:51.020Z,97300.09
2022-08-19T08:50:37.177Z,97300.52
2022-08-19T08:53:07.649Z,97295.44
2022-08-19T08:55:36.612Z,97291.73
2022-08-19T08:58:17.748Z,97289.01
2022-08-19T09:00:48.442Z,97288.17
2022-08-19T09:03:21.554Z,97284.30
2022-08-19T09:05:57.399Z,97279.39
2022-08-19T09:08:51.397Z,97271.09
2022-08-19T09:11:42.386Z,97267.45
2022-08-19T09:14:50.169Z,97269.55
2022-08-19T09:17:32.206Z,97268.38
2022-08-19T09:20:09.596Z,97265.10
2022-08-19T09:22:39.627Z,97262.22
2022-08-19T09:25:10.745Z,97264.05
2022-08-19T09:27:42.768Z,97263.67
2022-08-19T09:30:27.911Z,97261.56
2022-08-19T09:33:00.384Z,97260.73
2022-08-19T09:35:30.756Z,97258.73
2022-08-19T09:38:01.566Z,97261.52
2022-08-19T09:40:37.776Z,97260.69
2022-08-19T09:43:10.070Z,97259.67
2022-08-19T09:45:41.822Z,97259.44
2022-08-19T09:48:11.849Z,97260.08
2022-08-19T09:50:51.873Z,97259.83
2022-08-19T09:53:25.456Z,97261.67
2022-08-19T09:55:56.674Z,97263.57
2022-08-19T09:58:28.771Z,97265.36
2022-08-19T10:01:01.323Z,97260.45
2022-08-19T10:03:32.276Z,97256.87
2022-08-19T10:06:05.695Z,97258.09
2022-08-19T10:08:50.468Z,97253.52
2022-08-19T10:11:27.193Z,97250.23
2022-08-19T10:14:06.901Z,97246.85
2022-08-19T10:16:39.598Z,97241.75
2022-08-19T10:19:08.204Z,97233.80
2022-08-19T10:21:37.278Z,97236.14
2022-08-19T10:24:06.787Z,97241.38
2022-08-19T10:26:43.087Z,97230.03
2022-08-19T10:29:12.794Z,97228.20
2022-08-19T10:32:00.308Z,97221.80
2022-08-19T10:34:30.821Z,97226.44
2022-08-19T10:37:01.939Z,97221.15
2022-08-19T10:39:41.064Z,97221.69
2022-08-19T10:42:16.449Z,97223.48
2022-08-19T10:44:44.663Z,97219.16
2022-08-19T10:47:17.186Z,97214.90
2022-08-19T10:50:13.291Z,97212.94
2022-08-19T10:52:50.028Z,97211.83
2022-08-19T10:55:41.376Z,97212.27
2022-08-19T10:58:26.073Z,97213.59
2022-08-19T11:00:59.894Z,97216.33
2022-08-19T11:03:31.815Z,97215.11
2022-08-19T11:06:02.159Z,97211.77
2022-08-19T11:08:32.184Z,97207.79
2022-08-19T11:11:03.888Z,97204.00
2022-08-19T11:13:35.130Z,97203.94
2022-08-19T11:16:26.223Z,97204.88
2022-08-19T11:18:59.406Z,97204.20
2022-08-19T11:21:33.137Z,97207.41
2022-08-19T11:24:05.577Z,97211.77
2022-08-19T11:26:35.017Z,97210.06
2022-08-19T11:29:05.053Z,97210.23
2022-08-19T11:31:37.300Z,97207.85
2022-08-19T11:34:08.129Z,97205.42
2022-08-19T11:36:39.827Z,97203.94
2022-08-19T11:39:09.015Z,97203.16
2022-08-19T11:41:37.090Z,97199.41
2022-08-19T11:44:07.516Z,97190.08
2022-08-19T11:46:37.999Z,97194.76
2022-08-19T11:49:13.864Z,97193.32
2022-08-19T11:51:46.756Z,97192.80
2022-08-19T11:54:17.255Z,97198.10
2022-08-19T11:56:47.464Z,97193.73
2022-08-19T11:59:15.921Z,97189.36
2022-08-19T12:01:44.686Z,97185.70
2022-08-19T12:04:13.045Z,97187.99
2022-08-19T12:06:42.330Z,97182.81
2022-08-19T12:09:11.736Z,97178.73
2022-08-19T12:11:40.681Z,97181.58
2022-08-19T12:14:14.335Z,97177.63
2022-08-19T12:16:49.115Z,97177.55
2022-08-19T12:19:22.198Z,97174.04
2022-08-19T12:21:52.498Z,97173.06
2022-08-19T12:24:24.297Z,97171.80
2022-08-19T12:26:53.855Z,97170.59
2022-08-19T12:29:30.939Z,97172.27
2022-08-19T12:32:03.832Z,97167.36
2022-08-19T12:34:33.774Z,97161.88
2022-08-19T12:37:05.719Z,97156.60
2022-08-19T12:39:40.671Z,97156.95
2022-08-19T12:42:10.733Z,97150.30
2022-08-19T12:44:41.677Z,97147.20
2022-08-19T12:47:14.160Z,97142.84
2022-08-19T12:49:54.989Z,97141.16
2022-08-19T12:52:25.825Z,97142.33
2022-08-19T12:54:56.982Z,97137.42
2022-08-19T12:57:32.838Z,97134.66
2022-08-19T13:00:10.796Z,97132.90
2022-08-19T13:02:47.639Z,97128.55
2022-08-19T13:05:23.942Z,97129.66
2022-08-19T13:07:57.084Z,97127.39
2022-08-19T13:10:29.577Z,97127.30
2022-08-19T13:13:00.675Z,97122.35
2022-08-19T13:15:29.837Z,97115.69
2022-08-19T13:17:58.719Z,97118.95
2022-08-19T13:20:27.448Z,97113.41
2022-08-19T13:22:56.372Z,97110.33
2022-08-19T13:25:25.103Z,97111.64
2022-08-19T13:27:53.968Z,97116.18
2022-08-19T13:30:41.115Z,97111.02
2022-08-19T13:33:13.062Z,97109.73
2022-08-19T13:35:59.692Z,97107.63
2022-08-19T13:38:29.192Z,97106.40
2022-08-19T13:40:57.516Z,97103.00
2022-08-19T13:43:27.870Z,97102.95
2022-08-19T13:45:57.585Z,97098.77
2022-08-19T13:48:30.088Z,97101.09
2022-08-19T13:50:58.325Z,97102.02
2022-08-19T13:53:26.482Z,97095.96
2022-08-19T13:55:55.159Z,97095.52
2022-08-19T13:58:23.976Z,97096.14
2022-08-19T14:00:52.411Z,97096.13
2022-08-19T14:03:21.266Z,97099.24
2022-08-19T14:05:49.661Z,97096.11
2022-08-19T14:08:19.421Z,97094.08
2022-08-19T14:10:47.517Z,97094.30
2022-08-19T14:13:20.094Z,97092.20
2022-08-19T14:15:48.533Z,97091.52
2022-08-19T14:18:18.857Z,97088.33
2022-08-19T14:20:47.289Z,97089.55
2022-08-19T14:23:15.654Z,97090.52
2022-08-19T14:25:44.452Z,97088.03
2022-08-19T14:28:12.566Z,97089.95
2022-08-19T14:30:40.846Z,97090.44
2022-08-19T14:33:09.662Z,97093.92
2022-08-19T14:35:38.630Z,97095.50
2022-08-19T14:38:08.443Z,97092.31
2022-08-19T14:40:36.619Z,97091.25
2022-08-19T14:43:05.588Z,97092.27
2022-08-19T14:45:37.107Z,97092.18
2022-08-19T14:48:07.270Z,97094.69
2022-08-19T14:50:38.395Z,97093.05
2022-08-19T14:53:12.441Z,97091.40
2022-08-19T14:55:45.771Z,97089.59
2022-08-19T14:58:28.804Z,97084.94
2022-08-19T15:01:00.770Z,97087.07
2022-08-19T15:03:32.734Z,97090.19
2022-08-19T15:06:02.543Z,97088.59
2022-08-19T15:08:32.777Z,97089.05
2022-08-19T15:11:01.078Z,97084.44
2022-08-19T15:13:31.250Z,97084.83
2022-08-19T15:15:59.660Z,97084.70
2022-08-19T15:18:28.000Z,97084.70
2022-08-19T15:20:56.796Z,97079.94
2022-08-19T15:23:25.527Z,97082.42
2022-08-19T15:25:56.712Z,97077.60
2022-08-19T15:28:26.887Z,97075.41
2022-08-19T15:30:55.077Z,97072.96
2022-08-19T15:33:23.774Z,97076.48
2022-08-19T15:35:52.212Z,97075.69
2022-08-19T15:38:26.090Z,97077.23
2022-08-19T15:41:14.444Z,97075.05
2022-08-19T15:43:43.173Z,97084.05
2022-08-19T15:46:11.220Z,97088.29
2022-08-19T15:48:49.073Z,97092.36
2022-08-19T15:51:25.695Z,97090.65
2022-08-19T15:53:55.487Z,97088.09
2022-08-19T15:56:27.187Z,97086.70
2022-08-19T15:59:14.058Z,97083.51
2022-08-19T16:02:00.446Z,97080.38
2022-08-19T16:04:47.211Z,97079.34
2022-08-19T16:07:15.491Z,97081.61
2022-08-19T16:09:51.623Z,97082.42
2022-08-19T16:12:19.737Z,97083.61
2022-08-19T16:14:49.361Z,97083.66
2022-08-19T16:17:17.365Z,97080.43
2022-08-19T16:19:48.512Z,97077.44
2022-08-19T16:22:18.850Z,97079.02
2022-08-19T16:24:47.142Z,97076.91
2022-08-19T16:27:16.275Z,97075.63
2022-08-19T16:29:44.283Z,97075.77
2022-08-19T16:32:12.300Z,97077.50
2022-08-19T16:34:42.194Z,97077.64
2022-08-19T16:37:10.785Z,97076.80
2022-08-19T16:39:39.711Z,97072.61
2022-08-19T16:42:09.914Z,97069.46
2022-08-19T16:44:42.764Z,97072.21
2022-08-19T16:47:12.610Z,97073.27
2022-08-19T16:49:52.258Z,97072.13
2022-08-19T16:52:26.360Z,97074.34
2022-08-19T16:54:54.985Z,97071.14
2022-08-19T16:57:24.016Z,97068.73
2022-08-19T16:59:52.547Z,97069.73
2022-08-19T17:02:29.458Z,97068.27
2022-08-19T17:04:59.469Z,97066.61
2022-08-19T17:07:33.073Z,97067.58
2022-08-19T17:10:05.786Z,97068.97
2022-08-19T17:12:35.378Z,97071.15
2022-08-19T17:15:08.674Z,97077.51
2022-08-19T17:17:37.504Z,97079.20
2022-08-19T17:20:06.705Z,97083.44
2022-08-19T17:22:37.230Z,97084.45
2022-08-19T17:25:06.233Z,97085.05
2022-08-19T17:27:34.559Z,97087.44
2022-08-19T17:30:07.365Z,97090.70
2022-08-19T17:32:35.810Z,97091.24
2022-08-19T17:35:05.137Z,97093.80
2022-08-19T17:37:34.619Z,97093.89
2022-08-19T17:40:08.041Z,97090.92
2022-08-19T17:42:37.799Z,97092.43
2022-08-19T17:45:07.812Z,97096.05
2022-08-19T17:47:37.796Z,97096.92
2022-08-19T17:50:09.256Z,97103.73
2022-08-19T17:52:39.211Z,97106.14
2022-08-19T17:55:08.193Z,97108.84
2022-08-19T17:57:41.880Z,97113.00
2022-08-19T18:00:15.550Z,97109.05
2022-08-19T18:02:53.630Z,97109.22
2022-08-19T18:05:29.805Z,97110.45
2022-08-19T18:07:58.602Z,97109.84
2022-08-19T18:10:32.064Z,97111.67
2022-08-19T18:13:17.373Z,97110.44
2022-08-19T18:15:47.577Z,97109.38
2022-08-19T18:18:15.780Z,97111.70
2022-08-19T18:20:44.847Z,97115.41
2022-08-19T18:23:45.503Z,97119.65
2022-08-19T18:26:02.136Z,97119.02
2022-08-19T18:28:30.698Z,97120.60
2022-08-19T18:30:59.399Z,97120.89
2022-08-19T18:33:27.669Z,97125.38
2022-08-19T18:35:56.755Z,97129.47
2022-08-19T18:38:43.155Z,97129.55
2022-08-19T18:41:29.697Z,97123.85
2022-08-19T18:44:16.154Z,97123.52
2022-08-19T18:47:02.710Z,97123.23
2022-08-19T18:49:33.453Z,97125.48
2022-08-19T18:52:03.320Z,97124.63
2022-08-19T18:54:32.642Z,97130.34
2022-08-19T18:57:00.791Z,97130.05
2022-08-19T18:59:32.860Z,97133.45
2022-08-19T19:02:02.495Z,97134.01
2022-08-19T19:04:37.576Z,97135.45
2022-08-19T19:07:08.541Z,97139.95
2022-08-19T19:09:38.604Z,97141.00
2022-08-19T19:12:12.652Z,97140.84
2022-08-19T19:14:50.238Z,97137.26
2022-08-19T19:17:23.134Z,97138.52
2022-08-19T19:19:51.404Z,97143.63
2022-08-19T19:22:22.884Z,97147.10
2022-08-19T19:24:52.184Z,97147.56
2022-08-19T19:27:21.504Z,97146.71
2022-08-19T19:29:52.388Z,97148.48
2022-08-19T19:32:22.193Z,97150.67
2022-08-19T19:34:50.980Z,97155.63
2022-08-19T19:37:19.353Z,97156.89
2022-08-19T19:39:48.324Z,97160.45
2022-08-19T19:42:21.278Z,97159.58
2022-08-19T19:44:55.884Z,97162.83
2022-08-19T19:47:24.665Z,97168.80
2022-08-19T19:50:13.705Z,97170.86
2022-08-19T19:52:45.928Z,97173.11
2022-08-19T19:55:18.487Z,97168.50
2022-08-19T19:57:49.166Z,97171.27
2022-08-19T20:00:19.216Z,97180.21
2022-08-19T20:02:50.505Z,97179.93
2022-08-19T20:05:21.642Z,97179.32
2022-08-19T20:08:09.915Z,97177.84
2022-08-19T20:10:39.516Z,97183.77
2022-08-19T20:13:08.284Z,97186.08
2022-08-19T20:15:40.440Z,97183.43
2022-08-19T20:18:14.615Z,97186.97
2022-08-19T20:20:45.271Z,97186.73
2022-08-19T20:23:13.405Z,97183.33
2022-08-19T20:25:42.220Z,97180.70
2022-08-19T20:28:12.204Z,97187.20
2022-08-19T20:30:44.948Z,97188.77
2022-08-19T20:33:14.938Z,97188.21
2022-08-19T20:35:44.548Z,97191.56
2022-08-19T20:38:13.262Z,97195.08
2022-08-19T20:40:41.598Z,97192.61
2022-08-19T20:43:13.209Z,97193.72
2022-08-19T20:45:41.337Z,97192.95
2022-08-19T20:48:12.550Z,97190.63
2022-08-19T20:50:40.932Z,97195.84
2022-08-19T20:53:16.063Z,97196.08
2022-08-19T20:55:46.866Z,97195.80
2022-08-19T20:58:17.577Z,97191.63
2022-08-19T21:00:46.313Z,97194.30
2022-08-19T21:03:21.712Z,97195.38
2022-08-19T21:05:50.838Z,97198.94
2022-08-19T21:08:19.068Z,97202.71
2022-08-19T21:10:49.286Z,97202.02
2022-08-19T21:13:19.071Z,97202.79
2022-08-19T21:15:47.595Z,97202.43
2022-08-19T21:18:18.572Z,97198.89
2022-08-19T21:20:47.414Z,97196.98
2022-08-19T21:23:18.491Z,97198.77
2022-08-19T21:25:54.014Z,97199.84
2022-08-19T21:28:34.347Z,97202.81
2022-08-19T21:31:07.062Z,97205.97
2022-08-19T21:33:35.118Z,97205.27
2022-08-19T21:36:04.622Z,97200.83
2022-08-19T21:38:32.850Z,97198.20
2022-08-19T21:41:05.731Z,97197.11
2022-08-19T21:43:36.513Z,97195.98
2022-08-19T21:46:05.461Z,97198.00
2022-08-19T21:48:33.601Z,97198.17
2022-08-19T21:51:01.988Z,97197.95
2022-08-19T21:53:31.446Z,97196.60
2022-08-19T21:56:03.976Z,97197.83
2022-08-19T21:58:32.330Z,97197.27
2022-08-19T22:01:02.162Z,97198.83
2022-08-19T22:03:31.050Z,97199.75
2022-08-19T22:05:59.061Z,97199.98
2022-08-19T22:08:27.405Z,97204.21
2022-08-19T22:10:55.724Z,97203.21
2022-08-19T22:13:25.605Z,97198.48
2022-08-19T22:15:55.362Z,97194.37
2022-08-19T22:18:23.935Z,97192.59
2022-08-19T22:20:52.056Z,97189.84
2022-08-19T22:23:20.109Z,97188.55
2022-08-19T22:25:48.105Z,97189.55
2022-08-19T22:28:18.833Z,97190.81
2022-08-19T22:30:51.088Z,97189.46
2022-08-19T22:33:21.419Z,97191.02
2022-08-19T22:35:52.003Z,97193.27
2022-08-19T22:38:20.025Z,97193.70
2022-08-19T22:40:49.829Z,97195.96
2022-08-19T22:43:20.924Z,97196.05
2022-08-19T22:45:51.221Z,97198.41
2022-08-19T22:48:21.663Z,97195.77
2022-08-19T22:51:08.692Z,97189.05
2022-08-19T22:53:40.005Z,97183.16
2022-08-19T22:56:14.927Z,97179.52
2022-08-19T22:58:43.849Z,97179.38
2022-08-19T23:01:16.305Z,97178.30
2022-08-19T23:03:56.774Z,97175.05
2022-08-19T23:06:31.241Z,97175.02
2022-08-19T23:09:07.248Z,97170.33
2022-08-19T23:11:41.743Z,97168.99
2022-08-19T23:14:12.610Z,97163.77
2022-08-19T23:16:41.914Z,97166.09
2022-08-19T23:19:10.809Z,97166.39
2022-08-19T23:21:40.896Z,97165.09
2022-08-19T23:24:10.312Z,97164.14
2022-08-19T23:26:38.591Z,97158.72
2022-08-19T23:29:25.078Z,97155.45
2022-08-19T23:31:53.035Z,97156.96
2022-08-19T23:34:21.089Z,97156.79
2022-08-19T23:36:50.570Z,97157.98
2022-08-19T23:39:19.502Z,97159.89
2022-08-19T23:41:47.764Z,97165.24
2022-08-19T23:44:15.737Z,97168.92
2022-08-19T23:46:54.447Z,97169.61
2022-08-19T23:49:25.360Z,97168.28
2022-08-19T23:51:55.168Z,97169.16
2022-08-19T23:54:32.024Z,97171.93
2022-08-19T23:57:13.921Z,97174.08
2022-08-19T23:59:45.756Z,97172.45
